createdAt,value
2019-06-01T00:00:25.636Z,1014.03
2019-06-01T00:01:06.927Z,1014.04
2019-06-01T00:01:48.648Z,1014.06
2019-06-01T00:02:27.694Z,1014.08
2019-06-01T00:03:08.216Z,1014.04
2019-06-01T00:03:49.083Z,1014.06
2019-06-01T00:04:29.702Z,1014.06
2019-06-01T00:05:50.752Z,1014.07
2019-06-01T00:06:31.585Z,1014.12
2019-06-01T00:07:12.330Z,1014.1
2019-06-01T00:07:52.982Z,1014.12
2019-06-01T00:08:33.319Z,1014.09
2019-06-01T00:09:13.829Z,1014.07
2019-06-01T00:09:54.538Z,1014.07
2019-06-01T00:10:34.876Z,1014.11
2019-06-01T00:11:16.000Z,1014.07
2019-06-01T00:11:56.265Z,1014.05
2019-06-01T00:13:19.433Z,1014.04
2019-06-01T00:14:00.222Z,1014.07
2019-06-01T00:14:41.673Z,1014.04
2019-06-01T00:15:21.612Z,1014.04
2019-06-01T00:16:02.093Z,1014.05
2019-06-01T00:16:43.978Z,1014.03
2019-06-01T00:17:23.438Z,1014.05
2019-06-01T00:18:04.263Z,1014
2019-06-01T00:18:46.015Z,1014.03
2019-06-01T00:19:25.683Z,1014.03
2019-06-01T00:20:46.489Z,1014.02
2019-06-01T00:21:26.927Z,1014.03
2019-06-01T00:22:07.355Z,1014.05
2019-06-01T00:22:47.810Z,1014.02
2019-06-01T00:23:28.235Z,1014.01
2019-06-01T00:24:08.649Z,1014.03
2019-06-01T00:24:50.069Z,1014.02
2019-06-01T00:25:29.512Z,1014.03
2019-06-01T00:26:10.040Z,1014
2019-06-01T00:26:51.981Z,1014
2019-06-01T00:27:30.862Z,1014.04
2019-06-01T00:28:11.314Z,1014
2019-06-01T00:28:53.005Z,1014
2019-06-01T00:29:32.102Z,1013.99
2019-06-01T00:30:26.107Z,1014.01
2019-06-01T00:30:53.089Z,1014.02
2019-06-01T00:31:33.453Z,1014.02
2019-06-01T00:32:13.893Z,1014
2019-06-01T00:32:54.298Z,1014.06
2019-06-01T00:33:34.723Z,1014.03
2019-06-01T00:34:15.066Z,1014.04
2019-06-01T00:34:55.517Z,1014.06
2019-06-01T00:35:35.884Z,1014.06
2019-06-01T00:36:16.327Z,1014.05
2019-06-01T00:36:56.740Z,1014.04
2019-06-01T00:37:37.179Z,1014.08
2019-06-01T00:38:18.419Z,1014.04
2019-06-01T00:38:58.901Z,1014.02
2019-06-01T00:39:39.301Z,1014.04
2019-06-01T00:40:19.852Z,1013.98
2019-06-01T00:41:00.441Z,1014.01
2019-06-01T00:41:41.874Z,1014
2019-06-01T00:42:22.344Z,1014.01
2019-06-01T00:43:03.228Z,1013.97
2019-06-01T00:43:44.185Z,1014
2019-06-01T00:44:24.373Z,1013.97
2019-06-01T00:45:05.290Z,1013.96
2019-06-01T00:45:46.477Z,1013.97
2019-06-01T00:46:26.782Z,1013.94
2019-06-01T00:47:08.110Z,1013.98
2019-06-01T00:47:50.891Z,1013.94
2019-06-01T00:48:31.039Z,1013.91
2019-06-01T00:49:11.483Z,1013.95
2019-06-01T00:49:53.060Z,1013.89
2019-06-01T00:50:33.409Z,1013.98
2019-06-01T00:51:13.857Z,1013.94
2019-06-01T00:51:54.689Z,1013.96
2019-06-01T00:52:36.015Z,1013.97
2019-06-01T00:53:16.437Z,1013.99
2019-06-01T00:53:57.096Z,1013.97
2019-06-01T00:54:37.582Z,1014.02
2019-06-01T00:55:18.740Z,1013.98
2019-06-01T00:55:59.242Z,1013.98
2019-06-01T00:56:40.009Z,1014.01
2019-06-01T00:57:22.158Z,1014.01
2019-06-01T00:58:02.198Z,1013.99
2019-06-01T00:58:44.134Z,1014.03
2019-06-01T00:59:24.859Z,1014.04
2019-06-01T01:00:07.429Z,1014.03
2019-06-01T01:00:49.362Z,1014.04
2019-06-01T01:01:28.643Z,1014.03
2019-06-01T01:02:08.930Z,1014.05
2019-06-01T01:02:50.221Z,1014.04
2019-06-01T01:03:30.107Z,1014.05
2019-06-01T01:04:10.799Z,1014.07
2019-06-01T01:04:52.468Z,1014.07
2019-06-01T01:05:31.928Z,1014.07
2019-06-01T01:06:12.313Z,1014.09
2019-06-01T01:06:52.941Z,1014.11
2019-06-01T01:08:13.638Z,1014.11
2019-06-01T01:08:55.135Z,1014.09
2019-06-01T01:09:34.579Z,1014.11
2019-06-01T01:10:14.986Z,1014.11
2019-06-01T01:10:55.406Z,1014.05
2019-06-01T01:11:35.874Z,1014.09
2019-06-01T01:12:16.238Z,1014.08
2019-06-01T01:12:56.708Z,1014.06
2019-06-01T01:15:24.539Z,1014.08
2019-06-01T01:16:04.911Z,1014.08
2019-06-01T01:16:45.509Z,1014.1
2019-06-01T01:17:25.743Z,1014.07
2019-06-01T01:18:06.185Z,1014.1
2019-06-01T01:18:47.725Z,1014.06
2019-06-01T01:19:26.951Z,1014.04
2019-06-01T01:20:07.333Z,1014.08
2019-06-01T01:20:47.839Z,1014.06
2019-06-01T01:21:28.141Z,1014.05
2019-06-01T01:22:08.504Z,1014.05
2019-06-01T01:22:50.160Z,1014.03
2019-06-01T01:23:29.258Z,1014.03
2019-06-01T01:24:09.648Z,1014.05
2019-06-01T01:24:50.485Z,1014.06
2019-06-01T01:25:30.454Z,1014
2019-06-01T01:26:10.852Z,1014.07
2019-06-01T01:26:51.222Z,1014.05
2019-06-01T01:27:31.574Z,1014.08
2019-06-01T01:28:11.953Z,1014.04
2019-06-01T01:28:52.931Z,1014.08
2019-06-01T01:29:32.721Z,1014.04
2019-06-01T01:30:13.148Z,1014.06
2019-06-01T01:31:06.367Z,1014.08
2019-06-01T01:31:33.926Z,1014.03
2019-06-01T01:32:14.343Z,1014.11
2019-06-01T01:32:55.765Z,1014.1
2019-06-01T01:33:35.125Z,1014.05
2019-06-01T01:34:15.510Z,1014.11
2019-06-01T01:35:36.312Z,1014.06
2019-06-01T01:36:16.710Z,1014.05
2019-06-01T01:41:32.330Z,1014.01
2019-06-01T01:42:12.266Z,1014.02
2019-06-01T01:42:52.704Z,1014.03
2019-06-01T01:43:33.114Z,1014.01
2019-06-01T01:44:13.535Z,1013.99
2019-06-01T01:45:34.416Z,1013.99
2019-06-01T01:46:15.024Z,1013.99
2019-06-01T01:46:55.372Z,1013.98
2019-06-01T01:47:35.782Z,1013.97
2019-06-01T01:48:16.233Z,1014
2019-06-01T01:48:56.647Z,1013.96
2019-06-01T01:49:37.923Z,1013.95
2019-06-01T01:50:18.410Z,1013.97
2019-06-01T01:50:58.800Z,1013.95
2019-06-01T01:51:39.661Z,1013.95
2019-06-01T01:53:00.384Z,1013.97
2019-06-01T01:53:40.787Z,1013.94
2019-06-01T01:54:21.208Z,1013.93
2019-06-01T01:55:01.653Z,1013.97
2019-06-01T01:55:42.045Z,1013.98
2019-06-01T01:56:22.441Z,1013.95
2019-06-01T01:57:02.890Z,1013.96
2019-06-01T01:57:43.335Z,1014
2019-06-01T01:58:23.819Z,1014
2019-06-01T01:59:04.414Z,1013.99
2019-06-01T01:59:44.865Z,1013.99
2019-06-01T02:00:25.416Z,1013.98
2019-06-01T02:01:21.163Z,1013.97
2019-06-01T02:01:46.199Z,1014
2019-06-01T02:02:26.797Z,1014
2019-06-01T02:03:07.236Z,1013.91
2019-06-01T02:03:47.634Z,1013.98
2019-06-01T02:04:28.082Z,1013.95
2019-06-01T02:08:20.021Z,1014.02
2019-06-01T02:09:11.794Z,1013.98
2019-06-01T02:10:01.864Z,1014.03
2019-06-01T02:10:50.961Z,1014
2019-06-01T02:11:39.014Z,1013.99
2019-06-01T02:12:22.952Z,1014.04
2019-06-01T02:13:03.314Z,1014.02
2019-06-01T02:13:43.756Z,1013.99
2019-06-01T02:14:24.146Z,1014.02
2019-06-01T02:16:23.960Z,1013.96
2019-06-01T02:18:58.873Z,1013.99
2019-06-01T02:19:38.725Z,1014
2019-06-01T02:20:19.265Z,1013.94
2019-06-01T02:21:00.444Z,1013.93
2019-06-01T02:21:40.252Z,1013.95
2019-06-01T02:23:01.059Z,1013.95
2019-06-01T02:23:41.494Z,1013.94
2019-06-01T02:24:21.882Z,1013.97
2019-06-01T02:25:02.394Z,1013.93
2019-06-01T02:25:42.711Z,1013.97
2019-06-01T02:26:23.133Z,1013.97
2019-06-01T02:27:04.682Z,1013.98
2019-06-01T02:27:45.879Z,1013.92
2019-06-01T02:28:26.212Z,1013.94
2019-06-01T02:29:06.607Z,1013.92
2019-06-01T02:29:47.086Z,1013.93
2019-06-01T02:30:27.456Z,1013.91
2019-06-01T02:31:07.906Z,1013.93
2019-06-01T02:31:48.342Z,1013.94
2019-06-01T02:32:28.782Z,1013.92
2019-06-01T02:33:09.251Z,1013.91
2019-06-01T02:33:49.642Z,1013.89
2019-06-01T02:34:30.046Z,1013.91
2019-06-01T02:35:10.501Z,1013.92
2019-06-01T02:35:50.861Z,1013.91
2019-06-01T02:36:31.293Z,1013.92
2019-06-01T02:37:52.189Z,1013.88
2019-06-01T02:38:32.612Z,1013.94
2019-06-01T02:39:13.078Z,1013.88
2019-06-01T02:39:54.282Z,1013.88
2019-06-01T02:40:33.819Z,1013.87
2019-06-01T02:41:14.217Z,1013.88
2019-06-01T02:41:54.976Z,1013.9
2019-06-01T02:42:35.157Z,1013.87
2019-06-01T02:43:15.520Z,1013.91
2019-06-01T02:43:57.283Z,1013.88
2019-06-01T02:44:36.444Z,1013.91
2019-06-01T02:45:16.853Z,1013.86
2019-06-01T02:45:58.117Z,1013.85
2019-06-01T02:46:37.691Z,1013.84
2019-06-01T02:47:18.331Z,1013.86
2019-06-01T02:47:59.469Z,1013.84
2019-06-01T02:48:39.184Z,1013.84
2019-06-01T02:49:19.575Z,1013.84
2019-06-01T02:50:00.987Z,1013.82
2019-06-01T02:50:40.349Z,1013.86
2019-06-01T02:51:20.849Z,1013.89
2019-06-01T02:52:01.412Z,1013.83
2019-06-01T02:52:41.873Z,1013.85
2019-06-01T02:53:22.343Z,1013.84
2019-06-01T02:54:04.102Z,1013.83
2019-06-01T02:54:43.610Z,1013.83
2019-06-01T02:55:24.066Z,1013.8
2019-06-01T02:56:04.510Z,1013.77
2019-06-01T02:56:45.444Z,1013.74
2019-06-01T02:57:25.994Z,1013.74
2019-06-01T02:58:06.941Z,1013.76
2019-06-01T02:58:47.253Z,1013.72
2019-06-01T02:59:27.624Z,1013.71
2019-06-01T03:00:08.727Z,1013.76
2019-06-01T03:00:49.160Z,1013.75
2019-06-01T03:01:30.088Z,1013.75
2019-06-01T03:02:14.084Z,1013.73
2019-06-01T03:02:51.776Z,1013.78
2019-06-01T03:03:32.651Z,1013.79
2019-06-01T03:04:13.178Z,1013.74
2019-06-01T03:04:53.579Z,1013.73
2019-06-01T03:05:34.318Z,1013.73
2019-06-01T03:06:15.398Z,1013.76
2019-06-01T03:06:57.373Z,1013.71
2019-06-01T03:07:37.782Z,1013.73
2019-06-01T03:08:18.211Z,1013.75
2019-06-01T03:10:46.599Z,1013.74
2019-06-01T03:11:27.473Z,1013.74
2019-06-01T03:12:08.213Z,1013.72
2019-06-01T03:12:48.337Z,1013.75
2019-06-01T03:13:28.767Z,1013.72
2019-06-01T03:14:09.236Z,1013.75
2019-06-01T03:15:30.060Z,1013.76
2019-06-01T03:16:11.185Z,1013.76
2019-06-01T03:16:51.577Z,1013.75
2019-06-01T03:17:32.104Z,1013.77
2019-06-01T03:18:12.508Z,1013.76
2019-06-01T03:18:52.919Z,1013.8
2019-06-01T03:19:33.422Z,1013.78
2019-06-01T03:20:13.976Z,1013.75
2019-06-01T03:20:54.965Z,1013.77
2019-06-01T03:21:35.577Z,1013.72
2019-06-01T03:22:16.366Z,1013.72
2019-06-01T03:22:57.673Z,1013.74
2019-06-01T03:23:38.829Z,1013.73
2019-06-01T03:24:19.359Z,1013.72
2019-06-01T03:25:00.097Z,1013.7
2019-06-01T03:25:40.992Z,1013.68
2019-06-01T03:26:22.935Z,1013.74
2019-06-01T03:27:04.599Z,1013.74
2019-06-01T03:27:46.768Z,1013.75
2019-06-01T03:28:27.616Z,1013.77
2019-06-01T03:29:09.470Z,1013.77
2019-06-01T03:29:48.843Z,1013.76
2019-06-01T03:30:30.047Z,1013.76
2019-06-01T03:31:10.811Z,1013.76
2019-06-01T03:31:51.086Z,1013.76
2019-06-01T03:32:36.473Z,1013.78
2019-06-01T03:33:14.085Z,1013.77
2019-06-01T03:33:53.206Z,1013.76
2019-06-01T03:34:34.095Z,1013.75
2019-06-01T03:35:55.762Z,1013.78
2019-06-01T03:36:36.780Z,1013.76
2019-06-01T03:37:17.254Z,1013.79
2019-06-01T03:37:57.651Z,1013.77
2019-06-01T03:38:38.149Z,1013.77
2019-06-01T03:39:18.575Z,1013.77
2019-06-01T03:39:58.988Z,1013.76
2019-06-01T03:40:39.431Z,1013.75
2019-06-01T03:43:09.334Z,1013.75
2019-06-01T03:43:50.897Z,1013.74
2019-06-01T03:45:49.026Z,1013.76
2019-06-01T03:46:28.971Z,1013.76
2019-06-01T03:47:09.708Z,1013.77
2019-06-01T03:47:49.826Z,1013.78
2019-06-01T03:48:30.353Z,1013.79
2019-06-01T03:49:11.950Z,1013.78
2019-06-01T03:49:51.291Z,1013.81
2019-06-01T03:50:32.424Z,1013.78
2019-06-01T03:51:13.224Z,1013.74
2019-06-01T03:51:53.732Z,1013.72
2019-06-01T03:52:34.428Z,1013.76
2019-06-01T03:53:14.822Z,1013.75
2019-06-01T03:53:55.276Z,1013.72
2019-06-01T03:54:35.680Z,1013.72
2019-06-01T03:56:01.947Z,1013.71
2019-06-01T03:56:42.057Z,1013.71
2019-06-01T03:57:22.653Z,1013.72
2019-06-01T03:58:03.248Z,1013.76
2019-06-01T03:58:43.965Z,1013.74
2019-06-01T03:59:25.521Z,1013.72
2019-06-01T04:00:07.050Z,1013.76
2019-06-01T04:00:46.772Z,1013.76
2019-06-01T04:01:27.290Z,1013.76
2019-06-01T04:02:11.624Z,1013.73
2019-06-01T04:02:56.008Z,1013.74
2019-06-01T04:03:36.977Z,1013.78
2019-06-01T04:04:17.399Z,1013.79
2019-06-01T04:04:57.773Z,1013.75
2019-06-01T04:05:38.200Z,1013.74
2019-06-01T04:06:23.605Z,1013.72
2019-06-01T04:07:04.027Z,1013.76
2019-06-01T04:07:44.586Z,1013.74
2019-06-01T04:08:25.120Z,1013.75
2019-06-01T04:09:07.730Z,1013.78
2019-06-01T04:09:59.292Z,1013.83
2019-06-01T04:11:58.466Z,1013.81
2019-06-01T04:12:46.242Z,1013.79
2019-06-01T04:13:27.582Z,1013.83
2019-06-01T04:14:08.121Z,1013.79
2019-06-01T04:14:48.456Z,1013.77
2019-06-01T04:15:30.384Z,1013.77
2019-06-01T04:16:12.018Z,1013.74
2019-06-01T04:16:51.809Z,1013.75
2019-06-01T04:17:32.888Z,1013.76
2019-06-01T04:18:13.871Z,1013.79
2019-06-01T04:18:53.236Z,1013.81
2019-06-01T04:19:33.672Z,1013.81
2019-06-01T04:21:32.565Z,1013.86
2019-06-01T04:22:13.810Z,1013.86
2019-06-01T04:22:54.263Z,1013.9
2019-06-01T04:23:36.400Z,1013.86
2019-06-01T04:24:15.099Z,1013.94
2019-06-01T04:24:55.596Z,1013.88
2019-06-01T04:25:35.994Z,1013.87
2019-06-01T04:26:16.415Z,1013.89
2019-06-01T04:26:56.795Z,1013.88
2019-06-01T04:27:37.197Z,1013.94
2019-06-01T04:28:17.640Z,1013.89
2019-06-01T05:05:34.840Z,1014.04
2019-06-01T05:06:15.500Z,1014.09
2019-06-01T05:06:55.583Z,1014.06
2019-06-01T05:07:35.970Z,1014.07
2019-06-01T05:08:17.465Z,1014.07
2019-06-01T05:08:58.008Z,1014.05
2019-06-01T05:09:38.591Z,1014.08
2019-06-01T05:10:19.143Z,1014.11
2019-06-01T05:11:00.328Z,1014.1
2019-06-01T05:11:41.045Z,1014.1
2019-06-01T05:12:21.259Z,1014.1
2019-06-01T05:13:01.761Z,1014.15
2019-06-01T05:13:42.409Z,1014.11
2019-06-01T05:14:22.926Z,1014.11
2019-06-01T05:15:03.760Z,1014.11
2019-06-01T05:15:44.130Z,1014.13
2019-06-01T05:16:24.378Z,1014.09
2019-06-01T05:17:05.958Z,1014.12
2019-06-01T05:17:46.262Z,1014.09
2019-06-01T05:18:26.527Z,1014.14
2019-06-01T05:19:08.033Z,1014.1
2019-06-01T05:19:47.537Z,1014.14
2019-06-01T05:20:28.017Z,1014.16
2019-06-01T05:21:08.691Z,1014.18
2019-06-01T05:22:29.846Z,1014.2
2019-06-01T05:23:10.566Z,1014.2
2019-06-01T05:23:50.820Z,1014.23
2019-06-01T05:24:31.271Z,1014.21
2019-06-01T05:25:13.199Z,1014.25
2019-06-01T05:25:53.306Z,1014.22
2019-06-01T05:26:32.742Z,1014.3
2019-06-01T05:27:13.246Z,1014.27
2019-06-01T05:27:53.681Z,1014.3
2019-06-01T05:28:34.264Z,1014.31
2019-06-01T05:29:55.046Z,1014.24
2019-06-01T05:30:35.508Z,1014.27
2019-06-01T05:31:23.382Z,1014.25
2019-06-01T05:31:56.598Z,1014.27
2019-06-01T05:32:37.901Z,1014.25
2019-06-01T05:33:33.200Z,1014.27
2019-06-01T05:33:59.079Z,1014.27
2019-06-01T05:34:39.451Z,1014.29
2019-06-01T05:35:20.009Z,1014.26
2019-06-01T05:36:00.720Z,1014.29
2019-06-01T05:37:21.786Z,1014.3
2019-06-01T05:38:02.269Z,1014.31
2019-06-01T05:38:42.713Z,1014.32
2019-06-01T05:39:23.111Z,1014.21
2019-06-01T05:40:04.038Z,1014.25
2019-06-01T05:40:44.961Z,1014.26
2019-06-01T05:41:25.217Z,1014.27
2019-06-01T05:42:05.628Z,1014.28
2019-06-01T05:42:46.136Z,1014.23
2019-06-01T05:43:26.552Z,1014.23
2019-06-01T05:44:06.937Z,1014.23
2019-06-01T05:44:47.485Z,1014.25
2019-06-01T05:45:30.316Z,1014.21
2019-06-01T05:47:22.501Z,1014.15
2019-06-01T05:48:02.311Z,1014.15
2019-06-01T05:48:42.737Z,1014.1
2019-06-01T05:49:23.136Z,1014.11
2019-06-01T05:50:03.556Z,1014.07
2019-06-01T05:50:43.941Z,1014.08
2019-06-01T05:51:24.362Z,1014.08
2019-06-01T05:52:04.767Z,1014.08
2019-06-01T05:52:45.147Z,1014.07
2019-06-01T05:53:25.547Z,1014.04
2019-06-01T05:54:46.365Z,1014.08
2019-06-01T05:55:26.711Z,1014.05
2019-06-01T05:56:07.108Z,1014.04
2019-06-01T05:56:47.530Z,1013.98
2019-06-01T05:57:27.956Z,1014.03
2019-06-01T05:58:08.365Z,1014.11
2019-06-01T05:58:48.793Z,1014.07
2019-06-01T05:59:29.194Z,1014.05
2019-06-01T06:00:10.874Z,1014.03
2019-06-01T06:00:50.061Z,1014.03
2019-06-01T06:01:30.463Z,1014.03
2019-06-01T06:02:11.115Z,1014.04
2019-06-01T06:02:51.330Z,1014.02
2019-06-01T06:03:39.789Z,1014.05
2019-06-01T06:04:13.187Z,1014.06
2019-06-01T06:04:54.116Z,1014.05
2019-06-01T06:05:32.998Z,1014.05
2019-06-01T06:06:13.731Z,1014
2019-06-01T06:06:53.852Z,1014
2019-06-01T06:07:34.264Z,1013.95
2019-06-01T06:08:15.884Z,1013.99
2019-06-01T06:08:55.117Z,1013.98
2019-06-01T06:09:35.550Z,1013.89
2019-06-01T06:10:16.101Z,1013.9
2019-06-01T06:10:56.369Z,1013.92
2019-06-01T06:11:36.791Z,1013.92
2019-06-01T06:12:17.353Z,1013.93
2019-06-01T06:12:57.685Z,1013.92
2019-06-01T06:13:38.087Z,1013.95
2019-06-01T06:14:20.556Z,1013.96
2019-06-01T06:14:58.897Z,1013.99
2019-06-01T06:15:39.298Z,1014
2019-06-01T06:16:20.840Z,1014.02
2019-06-01T06:17:00.135Z,1013.96
2019-06-01T06:17:40.502Z,1013.96
2019-06-01T06:18:21.897Z,1013.98
2019-06-01T06:19:01.296Z,1013.97
2019-06-01T06:19:41.711Z,1013.97
2019-06-01T06:20:22.265Z,1013.95
2019-06-01T06:21:02.551Z,1013.94
2019-06-01T06:21:42.967Z,1013.93
2019-06-01T06:22:23.369Z,1013.95
2019-06-01T06:23:03.788Z,1013.88
2019-06-01T06:23:44.215Z,1013.92
2019-06-01T06:24:24.641Z,1013.91
2019-06-01T06:25:05.101Z,1013.93
2019-06-01T06:25:45.563Z,1013.92
2019-06-01T06:27:06.408Z,1013.9
2019-06-01T06:27:46.757Z,1013.93
2019-06-01T06:28:27.142Z,1013.95
2019-06-01T06:29:07.541Z,1013.96
2019-06-01T06:29:47.951Z,1014
2019-06-01T06:30:28.322Z,1014
2019-06-01T06:31:08.760Z,1013.99
2019-06-01T06:31:49.109Z,1014
2019-06-01T06:32:29.514Z,1013.95
2019-06-01T06:33:09.893Z,1014
2019-06-01T06:33:56.257Z,1013.96
2019-06-01T06:34:30.706Z,1013.97
2019-06-01T06:35:11.166Z,1013.99
2019-06-01T06:35:51.546Z,1013.91
2019-06-01T06:36:31.944Z,1013.96
2019-06-01T06:37:13.414Z,1013.94
2019-06-01T06:37:52.763Z,1013.92
2019-06-01T06:38:33.278Z,1013.86
2019-06-01T06:39:13.690Z,1013.87
2019-06-01T06:39:54.017Z,1013.86
2019-06-01T06:40:34.375Z,1013.86
2019-06-01T06:41:15.843Z,1013.79
2019-06-01T06:41:55.246Z,1013.81
2019-06-01T06:42:35.599Z,1013.81
2019-06-01T06:43:19.928Z,1013.82
2019-06-01T06:44:36.806Z,1013.87
2019-06-01T06:45:17.208Z,1013.88
2019-06-01T06:45:57.666Z,1013.86
2019-06-01T06:46:38.075Z,1013.83
2019-06-01T06:47:18.772Z,1013.92
2019-06-01T06:47:58.963Z,1013.85
2019-06-01T06:48:39.340Z,1013.9
2019-06-01T06:49:19.716Z,1013.88
2019-06-01T06:50:00.136Z,1013.85
2019-06-01T06:50:40.552Z,1013.85
2019-06-01T06:52:01.418Z,1013.84
2019-06-01T06:52:41.774Z,1013.82
2019-06-01T06:53:28.075Z,1013.81
2019-06-01T06:54:02.596Z,1013.8
2019-06-01T06:54:43.026Z,1013.82
2019-06-01T06:55:24.006Z,1013.81
2019-06-01T06:56:03.923Z,1013.79
2019-06-01T06:56:44.328Z,1013.78
2019-06-01T06:57:24.747Z,1013.81
2019-06-01T06:58:05.191Z,1013.82
2019-06-01T06:58:45.627Z,1013.81
2019-06-01T06:59:26.722Z,1013.78
2019-06-01T07:00:06.544Z,1013.81
2019-06-01T07:00:46.915Z,1013.84
2019-06-01T07:01:27.306Z,1013.83
2019-06-01T07:02:07.715Z,1013.83
2019-06-01T07:02:48.116Z,1013.8
2019-06-01T07:03:28.584Z,1013.81
2019-06-01T07:04:12.493Z,1013.86
2019-06-01T07:04:49.338Z,1013.85
2019-06-01T07:05:31.443Z,1013.87
2019-06-01T07:06:10.178Z,1013.86
2019-06-01T07:06:50.608Z,1013.91
2019-06-01T07:07:31.032Z,1013.9
2019-06-01T07:08:11.462Z,1013.87
2019-06-01T07:08:51.903Z,1013.87
2019-06-01T07:09:32.364Z,1013.88
2019-06-01T07:10:12.701Z,1013.9
2019-06-01T07:10:53.107Z,1013.95
2019-06-01T07:11:33.461Z,1013.94
2019-06-01T07:12:14.054Z,1013.9
2019-06-01T07:12:54.462Z,1013.95
2019-06-01T07:13:34.872Z,1013.94
2019-06-01T07:14:15.282Z,1013.97
2019-06-01T07:14:55.678Z,1013.99
2019-06-01T07:15:36.035Z,1013.99
2019-06-01T07:16:56.833Z,1013.96
2019-06-01T07:17:37.230Z,1013.95
2019-06-01T07:18:17.626Z,1013.96
2019-06-01T07:18:58.051Z,1013.95
2019-06-01T07:19:38.468Z,1013.95
2019-06-01T07:20:19.507Z,1013.93
2019-06-01T07:20:59.378Z,1013.86
2019-06-01T07:21:39.784Z,1013.89
2019-06-01T07:22:21.573Z,1013.87
2019-06-01T07:23:01.587Z,1013.9
2019-06-01T07:24:23.889Z,1013.93
2019-06-01T07:25:03.579Z,1013.9
2019-06-01T07:25:45.004Z,1013.92
2019-06-01T07:26:26.188Z,1013.92
2019-06-01T07:27:05.936Z,1013.91
2019-06-01T07:27:46.488Z,1013.93
2019-06-01T07:28:28.250Z,1013.94
2019-06-01T07:29:07.573Z,1013.98
2019-06-01T07:29:48.483Z,1013.97
2019-06-01T07:30:32.431Z,1013.98
2019-06-01T07:31:11.635Z,1014
2019-06-01T07:31:53.005Z,1013.97
2019-06-01T07:32:33.510Z,1013.98
2019-06-01T07:33:13.849Z,1013.95
2019-06-01T07:33:55.156Z,1013.98
2019-06-01T07:35:16.718Z,1013.96
2019-06-01T07:35:56.775Z,1013.95
2019-06-01T07:36:38.008Z,1013.91
2019-06-01T07:37:18.505Z,1013.99
2019-06-01T07:38:00.146Z,1014
2019-06-01T07:38:41.013Z,1013.99
2019-06-01T07:39:22.579Z,1013.96
2019-06-01T07:40:42.657Z,1014.04
2019-06-01T07:41:24.561Z,1014.01
2019-06-01T07:42:04.246Z,1013.98
2019-06-01T07:42:44.425Z,1014
2019-06-01T07:43:26.746Z,1014.03
2019-06-01T07:44:06.027Z,1014.01
2019-06-01T07:44:46.321Z,1014.04
2019-06-01T07:45:27.002Z,1014.04
2019-06-01T07:46:07.390Z,1013.99
2019-06-01T07:46:47.827Z,1014.01
2019-06-01T07:47:29.163Z,1014.01
2019-06-01T07:48:08.743Z,1014.02
2019-06-01T07:48:49.144Z,1014
2019-06-01T07:49:29.564Z,1014.02
2019-06-01T07:51:57.364Z,1014.04
2019-06-01T07:52:37.817Z,1014.02
2019-06-01T07:53:18.243Z,1014.02
2019-06-01T07:53:58.675Z,1014.03
2019-06-01T07:54:39.098Z,1014.02
2019-06-01T07:55:19.530Z,1014.04
2019-06-01T07:55:59.961Z,1014.02
2019-06-01T07:56:40.379Z,1014.03
2019-06-01T07:57:21.574Z,1014.01
2019-06-01T07:58:01.241Z,1014.04
2019-06-01T07:58:41.615Z,1014
2019-06-01T07:59:22.874Z,1014.03
2019-06-01T08:00:02.410Z,1014.01
2019-06-01T08:00:42.845Z,1014.02
2019-06-01T08:01:25.120Z,1014
2019-06-01T08:02:03.714Z,1014.01
2019-06-01T08:02:44.131Z,1013.99
2019-06-01T08:03:27.209Z,1013.99
2019-06-01T08:04:04.975Z,1013.98
2019-06-01T08:04:53.091Z,1013.98
2019-06-01T08:05:26.520Z,1013.98
2019-06-01T08:06:06.218Z,1013.96
2019-06-01T08:06:48.255Z,1013.97
2019-06-01T08:07:27.667Z,1013.93
2019-06-01T08:08:07.504Z,1013.94
2019-06-01T08:08:47.864Z,1013.93
2019-06-01T08:09:29.486Z,1013.91
2019-06-01T08:10:08.681Z,1013.94
2019-06-01T08:10:49.095Z,1013.92
2019-06-01T08:11:35.142Z,1013.84
2019-06-01T08:12:14.942Z,1013.92
2019-06-01T08:12:55.431Z,1013.87
2019-06-01T08:13:35.998Z,1013.91
2019-06-01T08:14:57.523Z,1013.94
2019-06-01T08:15:37.939Z,1013.92
2019-06-01T08:16:18.403Z,1013.95
2019-06-01T08:16:58.933Z,1013.96
2019-06-01T08:17:39.354Z,1013.95
2019-06-01T08:18:19.804Z,1013.94
2019-06-01T08:19:00.235Z,1013.95
2019-06-01T08:19:40.629Z,1013.94
2019-06-01T08:20:21.870Z,1013.97
2019-06-01T08:21:01.424Z,1013.99
2019-06-01T08:21:41.798Z,1013.95
2019-06-01T08:22:22.242Z,1013.95
2019-06-01T08:23:02.624Z,1013.9
2019-06-01T08:23:43.038Z,1013.89
2019-06-01T08:24:24.185Z,1013.89
2019-06-01T08:25:05.874Z,1013.89
2019-06-01T08:25:47.606Z,1013.85
2019-06-01T08:26:28.525Z,1013.91
2019-06-01T08:27:08.400Z,1013.89
2019-06-01T08:27:48.833Z,1013.89
2019-06-01T08:28:30.776Z,1013.84
2019-06-01T08:29:09.698Z,1013.85
2019-06-01T08:29:50.137Z,1013.84
2019-06-01T08:30:30.736Z,1013.85
2019-06-01T08:31:55.549Z,1013.85
2019-06-01T08:32:32.870Z,1013.84
2019-06-01T08:33:12.389Z,1013.86
2019-06-01T08:33:52.797Z,1013.84
2019-06-01T08:34:33.250Z,1013.85
2019-06-01T08:35:13.678Z,1013.85
2019-06-01T08:35:54.138Z,1013.86
2019-06-01T08:36:34.818Z,1013.88
2019-06-01T08:37:15.240Z,1013.85
2019-06-01T08:37:55.655Z,1013.83
2019-06-01T08:38:36.078Z,1013.85
2019-06-01T08:39:17.016Z,1013.85
2019-06-01T08:39:59.216Z,1013.82
2019-06-01T08:40:37.930Z,1013.81
2019-06-01T08:41:18.361Z,1013.81
2019-06-01T08:41:58.784Z,1013.83
2019-06-01T08:42:39.400Z,1013.83
2019-06-01T08:43:19.826Z,1013.84
2019-06-01T08:44:00.262Z,1013.85
2019-06-01T08:44:40.705Z,1013.82
2019-06-01T08:45:21.150Z,1013.83
2019-06-01T08:46:01.580Z,1013.83
2019-06-01T08:46:42.010Z,1013.81
2019-06-01T08:47:23.544Z,1013.81
2019-06-01T08:48:02.855Z,1013.81
2019-06-01T08:48:43.281Z,1013.87
2019-06-01T08:49:23.930Z,1013.8
2019-06-01T08:50:04.114Z,1013.78
2019-06-01T08:50:46.095Z,1013.81
2019-06-01T08:51:26.466Z,1013.79
2019-06-01T08:52:05.355Z,1013.79
2019-06-01T08:52:45.764Z,1013.76
2019-06-01T08:53:26.218Z,1013.83
2019-06-01T08:54:06.597Z,1013.8
2019-06-01T08:54:47.046Z,1013.75
2019-06-01T08:55:28.031Z,1013.8
2019-06-01T08:56:07.894Z,1013.74
2019-06-01T08:56:48.324Z,1013.78
2019-06-01T08:57:28.751Z,1013.78
2019-06-01T08:58:11.771Z,1013.76
2019-06-01T08:58:52.180Z,1013.74
2019-06-01T08:59:32.633Z,1013.7
2019-06-01T09:00:13.038Z,1013.73
2019-06-01T09:01:34.896Z,1013.7
2019-06-01T09:02:14.336Z,1013.67
2019-06-01T09:02:54.834Z,1013.74
2019-06-01T09:03:42.129Z,1013.7
2019-06-01T09:04:15.679Z,1013.68
2019-06-01T09:04:56.126Z,1013.63
2019-06-01T09:05:36.560Z,1013.66
2019-06-01T09:06:16.960Z,1013.64
2019-06-01T09:08:30.814Z,1013.63
2019-06-01T09:09:11.810Z,1013.6
2019-06-01T09:09:50.576Z,1013.63
2019-06-01T09:10:31.413Z,1013.6
2019-06-01T09:11:11.417Z,1013.63
2019-06-01T09:11:51.850Z,1013.63
2019-06-01T09:12:33.278Z,1013.63
2019-06-01T09:13:12.709Z,1013.63
2019-06-01T09:14:33.545Z,1013.59
2019-06-01T09:15:13.978Z,1013.62
2019-06-01T09:15:54.433Z,1013.58
2019-06-01T09:16:35.973Z,1013.6
2019-06-01T09:17:18.445Z,1013.59
2019-06-01T09:17:55.732Z,1013.54
2019-06-01T09:18:36.189Z,1013.55
2019-06-01T09:19:16.610Z,1013.55
2019-06-01T09:19:57.031Z,1013.59
2019-06-01T09:20:38.897Z,1013.55
2019-06-01T09:21:17.910Z,1013.55
2019-06-01T09:21:58.323Z,1013.56
2019-06-01T09:22:38.712Z,1013.57
2019-06-01T09:23:19.181Z,1013.56
2019-06-01T09:24:39.947Z,1013.56
2019-06-01T09:25:20.382Z,1013.54
2019-06-01T09:26:00.770Z,1013.52
2019-06-01T09:26:41.279Z,1013.5
2019-06-01T09:27:21.734Z,1013.54
2019-06-01T09:28:03.131Z,1013.53
2019-06-01T09:28:43.027Z,1013.55
2019-06-01T09:29:23.584Z,1013.51
2019-06-01T09:30:04.035Z,1013.53
2019-06-01T09:30:46.060Z,1013.54
2019-06-01T09:31:26.488Z,1013.54
2019-06-01T09:32:10.756Z,1013.56
2019-06-01T09:32:47.354Z,1013.53
2019-06-01T09:33:28.140Z,1013.56
2019-06-01T09:34:08.197Z,1013.54
2019-06-01T09:34:48.610Z,1013.54